Time;durP1;ratioP1;P1;durP2;ratioP2;P2;SDS_P1;SDS_P2;PMS_P1;PMS_P2;Temp;Humidity;BMP_temperature;BMP_pressure;BME280_temperature;BME280_humidity;BME280_pressure;Samples;Min_cycle;Max_cycle;Signal;HPM_P1;HPM_P2
2022/11/09 00:01:46;;;;;;;28.93;12.43;;;10.00;99.90;;;7.80;100.00;100596.75;10485390;28;20053;-81
2022/11/09 00:06:51;;;;;;;33.10;13.77;;;10.10;99.90;;;7.80;100.00;100602.03;10483491;28;20119;-81
2022/11/09 00:11:55;;;;;;;34.73;12.93;;;10.00;99.90;;;7.81;100.00;100594.91;10499223;28;20061;-81
2022/11/09 00:16:57;;;;;;;30.10;10.93;;;10.10;99.90;;;7.83;100.00;100593.78;10514487;28;20061;-82
2022/11/09 00:22:00;;;;;;;25.77;10.67;;;10.10;99.90;;;7.86;100.00;100588.25;10469344;28;20537;-81
2022/11/09 00:27:03;;;;;;;30.43;12.47;;;10.10;99.90;;;7.81;100.00;100592.28;10455601;28;20501;-81
2022/11/09 00:32:06;;;;;;;25.00;10.23;;;10.10;99.90;;;7.79;100.00;100589.75;10468341;28;20073;-81
2022/11/09 00:37:09;;;;;;;29.13;11.97;;;10.10;99.90;;;7.77;100.00;100594.34;10489843;28;20148;-81
2022/11/09 00:42:12;;;;;;;26.60;11.03;;;10.00;99.90;;;7.77;100.00;100581.97;10478658;28;20505;-81
2022/11/09 00:47:15;;;;;;;22.87;10.00;;;10.10;99.90;;;7.78;100.00;100580.97;10488771;28;20064;-81
2022/11/09 00:52:17;;;;;;;31.70;11.70;;;10.00;99.90;;;7.79;100.00;100585.28;10505405;28;20100;-81
2022/11/09 00:57:20;;;;;;;30.90;11.73;;;10.00;99.90;;;7.78;100.00;100580.16;10505301;28;20084;-81
2022/11/09 01:02:23;;;;;;;21.73;10.27;;;10.00;99.90;;;7.78;100.00;100575.69;10502707;28;20493;-81
2022/11/09 01:07:26;;;;;;;23.83;9.63;;;10.10;99.90;;;7.76;100.00;100577.66;10491573;28;20148;-81
2022/11/09 01:12:29;;;;;;;26.47;11.07;;;10.00;99.90;;;7.75;100.00;100575.97;10523748;28;20056;-80
2022/11/09 01:17:32;;;;;;;23.93;11.13;;;10.00;99.90;;;7.77;100.00;100578.47;10498876;28;20053;-80
2022/11/09 01:22:35;;;;;;;25.87;10.53;;;10.00;99.90;;;7.73;100.00;100574.44;10538201;28;20057;-81
2022/11/09 01:27:37;;;;;;;27.73;11.47;;;10.00;99.90;;;7.71;100.00;100571.09;10503085;28;20068;-81
2022/11/09 01:32:40;;;;;;;25.87;10.37;;;10.00;99.90;;;7.69;100.00;100568.63;10487296;28;20053;-81
2022/11/09 01:37:43;;;;;;;22.50;9.87;;;10.00;99.90;;;7.70;100.00;100566.78;10505348;28;20111;-81
2022/11/09 01:42:46;;;;;;;27.00;11.27;;;10.00;99.90;;;7.68;100.00;100556.38;10520542;28;20398;-81
2022/11/09 01:48:14;;;;;;;25.93;10.90;;;9.90;99.90;;;7.65;100.00;100551.34;10535664;28;20072;-80
2022/11/09 01:53:23;;;;;;;22.17;10.10;;;9.90;99.90;;;7.65;100.00;100555.78;10504550;28;20052;-81
2022/11/09 01:58:45;;;;;;;25.07;10.70;;;9.90;99.90;;;7.57;100.00;100548.56;10494515;28;20661;-80
2022/11/09 02:03:59;;;;;;;;;;;9.80;99.90;;;7.54;100.00;100545.34;10490013;28;20068;-81
2022/11/09 02:10:01;;;;;;;25.77;11.10;;;9.80;99.90;;;7.50;100.00;100539.53;10474018;28;19929;-81
2022/11/09 02:15:07;;;;;;;22.30;10.67;;;9.80;99.90;;;7.49;100.00;100540.47;10492013;28;20152;-80
2022/11/09 02:20:13;;;;;;;23.67;9.87;;;9.70;99.90;;;7.49;100.00;100540.47;10483672;28;20489;-81
2022/11/09 02:25:17;;;;;;;23.70;10.00;;;9.70;99.90;;;7.48;100.00;100533.53;10450837;28;20061;-81
2022/11/09 02:30:20;;;;;;;24.60;10.60;;;9.70;99.90;;;7.45;100.00;100528.53;10516222;28;20061;-80
2022/11/09 02:35:23;;;;;;;23.17;9.67;;;9.70;99.90;;;7.48;100.00;100530.88;10445871;28;20061;-81
2022/11/09 02:40:35;;;;;;;26.60;10.87;;;9.70;99.90;;;7.46;100.00;100525.75;10505265;28;20421;-82
2022/11/09 02:45:38;;;;;;;22.27;10.38;;;9.70;99.90;;;7.47;100.00;100529.22;10483882;28;20064;-82
2022/11/09 02:50:41;;;;;;;20.80;10.20;;;9.70;99.90;;;7.44;100.00;100525.06;10527212;28;20060;-82
2022/11/09 02:55:43;;;;;;;29.23;11.37;;;9.70;99.90;;;7.41;100.00;100524.50;10502267;28;20068;-82
2022/11/09 03:00:46;;;;;;;21.77;9.97;;;9.60;99.90;;;7.42;100.00;100528.78;10480534;28;20060;-82
2022/11/09 03:05:49;;;;;;;21.87;9.70;;;9.70;99.90;;;7.45;100.00;100525.88;10518458;28;20057;-82
2022/11/09 03:10:52;;;;;;;23.17;9.60;;;9.70;99.90;;;7.47;100.00;100535.34;10468370;28;20068;-82
2022/11/09 03:15:54;;;;;;;20.13;9.23;;;9.70;99.90;;;7.45;100.00;100536.47;10498801;28;20493;-82
2022/11/09 03:21:04;;;;;;;22.70;9.43;;;9.70;99.90;;;7.47;100.00;100539.78;10501411;28;20492;-82
2022/11/09 03:26:07;;;;;;;18.53;9.00;;;9.70;99.90;;;7.47;100.00;100539.78;10502035;28;20083;-82
2022/11/09 03:31:10;;;;;;;18.80;8.23;;;9.70;99.90;;;7.50;100.00;100532.44;10476346;28;20061;-81
2022/11/09 03:36:14;;;;;;;22.50;10.00;;;9.70;99.90;;;7.52;100.00;100524.34;10466963;28;20065;-81
2022/11/09 03:41:17;;;;;;;28.13;8.87;;;9.80;99.90;;;7.49;100.00;100520.16;10486736;28;20080;-81
2022/11/09 03:46:19;;;;;;;22.33;9.77;;;9.80;99.90;;;7.49;100.00;100524.63;10476131;28;20057;-80
2022/11/09 03:51:22;;;;;;;17.37;8.60;;;9.70;99.90;;;7.45;100.00;100531.19;10500283;28;20060;-81
2022/11/09 03:56:25;;;;;;;17.13;8.77;;;9.70;99.90;;;7.47;100.00;100534.50;10532951;28;20119;-80
2022/11/09 04:01:28;;;;;;;18.40;8.23;;;9.70;99.90;;;7.45;100.00;100528.53;10495871;28;20061;-80
2022/11/09 04:06:31;;;;;;;15.53;7.90;;;9.70;99.90;;;7.47;100.00;100529.22;10535227;28;20103;-80
2022/11/09 04:11:33;;;;;;;19.47;8.03;;;9.70;99.90;;;7.49;100.00;100522.81;10479728;28;20115;-80
2022/11/09 04:16:37;;;;;;;20.57;8.97;;;9.70;99.90;;;7.45;100.00;100512.66;10496969;28;20064;-81
2022/11/09 04:21:40;;;;;;;22.23;9.37;;;9.70;99.90;;;7.44;100.00;100508.34;10502548;28;20485;-80
2022/11/09 04:26:42;;;;;;;19.17;8.87;;;9.70;99.90;;;7.44;100.00;100513.66;10478788;28;20116;-81
2022/11/09 04:31:48;;;;;;;22.10;8.63;;;9.70;99.90;;;7.46;100.00;100511.69;10500823;28;20090;-81
2022/11/09 04:36:50;;;;;;;23.00;9.90;;;9.70;99.90;;;7.42;100.00;100516.41;10469224;28;20516;-80
2022/11/09 04:41:54;;;;;;;24.60;10.53;;;9.70;99.90;;;7.42;100.00;100516.41;10532848;28;20111;-80
2022/11/09 04:46:56;;;;;;;25.67;8.57;;;9.70;99.90;;;7.42;100.00;100520.88;10494466;28;20164;-81
2022/11/09 04:51:59;;;;;;;18.97;8.27;;;9.70;99.90;;;7.39;100.00;100521.16;10516711;28;20061;-81
2022/11/09 04:57:02;;;;;;;17.27;7.87;;;9.70;99.90;;;7.42;100.00;100526.16;10480674;28;20065;-80
2022/11/09 05:02:05;;;;;;;16.33;6.90;;;9.70;99.90;;;7.43;100.00;100522.53;10474954;28;20156;-80
2022/11/09 05:07:08;;;;;;;18.17;8.60;;;9.70;99.90;;;7.41;100.00;100516.56;10499278;28;20056;-80
2022/11/09 05:12:11;;;;;;;15.10;7.17;;;9.70;99.90;;;7.40;100.00;100528.94;10479840;28;20088;-81
2022/11/09 05:17:14;;;;;;;22.40;7.37;;;9.70;99.90;;;7.39;100.00;100526.44;10479582;28;20175;-81
2022/11/09 05:27:38;;;;;;;16.70;7.65;;;9.70;99.90;;;7.40;100.00;100528.94;10525967;28;20084;-81
2022/11/09 05:32:41;;;;;;;17.30;8.30;;;9.70;99.90;;;7.39;100.00;100515.88;10503715;28;20590;-81
2022/11/09 05:37:48;;;;;;;20.13;8.70;;;9.70;99.90;;;7.33;100.00;100519.91;10489811;28;20095;-81
2022/11/09 05:42:51;;;;;;;21.00;10.23;;;9.60;99.90;;;7.31;100.00;100521.00;10476800;28;20061;-81
2022/11/09 05:47:54;;;;;;;20.20;9.20;;;9.60;99.90;;;7.28;100.00;100529.22;10530280;28;20072;-82
2022/11/09 05:53:03;;;;;;;21.37;9.17;;;9.50;99.90;;;7.27;100.00;100538.97;10472829;28;20063;-81
2022/11/09 05:58:07;;;;;;;19.47;9.83;;;9.50;99.90;;;7.25;100.00;100539.09;10481367;28;20061;-81
2022/11/09 06:03:10;;;;;;;21.70;10.43;;;9.50;99.90;;;7.27;100.00;100538.13;10489805;28;20062;-82
2022/11/09 06:08:14;;;;;;;19.13;8.50;;;9.50;99.90;;;7.28;100.00;100540.63;10503601;28;20061;-81
2022/11/09 06:13:17;;;;;;;17.90;9.00;;;9.50;99.90;;;7.29;100.00;100546.75;10485062;28;20068;-81
2022/11/09 06:18:26;;;;;;;21.13;9.03;;;9.50;99.90;;;7.30;100.00;100548.41;10478199;28;20394;-81
2022/11/09 06:23:30;;;;;;;20.50;9.43;;;9.60;99.90;;;7.33;100.00;100553.44;10501704;28;20107;-81
2022/11/09 06:28:33;;;;;;;16.50;7.87;;;9.50;99.90;;;7.35;100.00;100559.41;10484522;28;20064;-82
2022/11/09 06:33:36;;;;;;;17.33;7.77;;;9.60;99.90;;;7.38;100.00;100560.00;10483311;28;20065;-81
2022/11/09 06:38:40;;;;;;;22.20;9.47;;;9.60;99.90;;;7.39;100.00;100559.00;10491893;28;20056;-81
2022/11/09 06:43:44;;;;;;;23.67;9.90;;;9.60;99.90;;;7.36;100.00;100564.56;10506835;28;20512;-80
2022/11/09 06:48:46;;;;;;;21.77;9.77;;;9.60;99.90;;;7.33;100.00;100559.56;10484280;28;20398;-80
2022/11/09 06:53:56;;;;;;;24.80;9.27;;;9.60;99.90;;;7.32;100.00;100551.78;10513176;28;20142;-81
2022/11/09 06:58:59;;;;;;;23.20;10.33;;;9.60;99.90;;;7.33;100.00;100558.72;10484904;28;20520;-81
2022/11/09 07:04:02;;;;;;;24.30;10.33;;;9.50;99.90;;;7.33;100.00;100562.22;10512134;28;20500;-80
2022/11/09 07:09:04;;;;;;;23.17;10.00;;;9.60;99.90;;;7.35;100.00;100560.25;10503387;28;20057;-81
2022/11/09 07:14:07;;;;;;;24.47;9.97;;;9.60;99.90;;;7.37;100.00;100546.88;10533880;28;20157;-80
2022/11/09 07:19:10;;;;;;;27.10;10.37;;;9.60;99.90;;;7.37;100.00;100544.25;10490290;28;20061;-80
2022/11/09 07:24:13;;;;;;;22.23;9.53;;;9.60;99.90;;;7.38;100.00;100553.88;10519627;28;20092;-80
2022/11/09 07:29:16;;;;;;;24.13;9.80;;;9.60;99.90;;;7.39;100.00;100550.25;10511570;28;20102;-81
2022/11/09 07:34:18;;;;;;;23.13;9.43;;;9.60;99.90;;;7.41;100.00;100550.94;10513566;28;20115;-81
2022/11/09 07:39:21;;;;;;;21.67;8.63;;;9.70;99.90;;;7.42;100.00;100549.94;10478517;28;20147;-81
2022/11/09 07:44:24;;;;;;;25.37;9.67;;;9.70;99.90;;;7.41;100.00;100543.84;10482122;28;20084;-81
2022/11/09 07:49:27;;;;;;;24.93;9.73;;;9.70;99.90;;;7.40;100.00;100550.09;10499617;28;20444;-81
2022/11/09 07:54:30;;;;;;;23.67;9.63;;;9.60;99.90;;;7.42;100.00;100558.72;10495789;28;20056;-80
2022/11/09 07:59:33;;;;;;;22.50;8.60;;;9.70;99.90;;;7.42;100.00;100549.94;10489386;28;20060;-80
2022/11/09 08:04:35;;;;;;;21.07;9.17;;;9.60;99.90;;;7.41;100.00;100545.63;10531639;28;20053;-80
2022/11/09 08:09:38;;;;;;;22.73;9.30;;;9.60;99.90;;;7.42;100.00;100548.13;10515946;28;20429;-80
2022/11/09 08:14:41;;;;;;;26.33;10.17;;;9.60;99.90;;;7.43;100.00;100543.69;10467375;28;20069;-80
2022/11/09 08:19:44;;;;;;;21.63;9.20;;;9.60;99.90;;;7.46;100.00;100546.06;10462452;28;20690;-80
2022/11/09 08:24:47;;;;;;;23.17;10.03;;;9.60;99.90;;;7.49;100.00;100548.41;10508524;28;20139;-80
2022/11/09 08:29:50;;;;;;;25.90;10.77;;;9.70;99.90;;;7.50;100.00;100545.66;10518821;28;20057;-79
2022/11/09 08:34:52;;;;;;;31.63;11.60;;;9.70;99.90;;;7.54;100.00;100540.06;10474393;28;20045;-81
2022/11/09 08:39:55;;;;;;;24.60;9.50;;;9.70;99.90;;;7.53;100.00;100531.31;10504208;28;20102;-81
2022/11/09 08:44:59;;;;;;;28.93;10.17;;;9.80;99.90;;;7.57;100.00;100539.81;10495708;28;20065;-81
2022/11/09 08:50:04;;;;;;;29.47;10.43;;;9.80;99.90;;;7.58;100.00;100541.47;10481993;28;20107;-82
2022/11/09 08:55:07;;;;;;;24.77;9.93;;;9.80;99.90;;;7.58;100.00;100542.31;10482945;28;20053;-81
2022/11/09 09:00:11;;;;;;;28.00;10.77;;;9.80;99.90;;;7.62;100.00;100546.34;10528812;28;20477;-81
2022/11/09 09:05:15;;;;;;;26.47;11.43;;;9.80;99.90;;;7.65;100.00;100539.94;10482282;28;20058;-81
2022/11/09 09:10:18;;;;;;;32.97;11.70;;;9.80;99.90;;;7.66;100.00;100538.94;10494094;27;20092;-81
2022/11/09 09:15:21;;;;;;;28.47;11.70;;;9.80;99.90;;;7.69;100.00;100539.50;10506127;28;20083;-81
2022/11/09 09:20:24;;;;;;;27.93;11.07;;;9.90;99.90;;;7.69;100.00;100539.50;10525539;28;20064;-81
2022/11/09 09:25:27;;;;;;;30.20;10.70;;;9.90;99.90;;;7.68;100.00;100547.59;10465311;28;20131;-81
2022/11/09 09:30:30;;;;;;;33.47;11.73;;;9.90;99.90;;;7.72;100.00;100547.16;10453391;28;20053;-80
2022/11/09 09:35:33;;;;;;;30.70;10.60;;;9.90;99.90;;;7.79;100.00;100550.06;10485514;28;20096;-80
2022/11/09 09:41:02;;;;;;;25.30;10.47;;;10.00;99.90;;;7.86;100.00;100539.78;10517629;28;20064;-83
2022/11/09 09:46:31;;;;;;;25.10;10.93;;;10.00;99.90;;;7.92;100.00;100540.03;10514867;28;20060;-81
2022/11/09 09:51:39;;;;;;;31.43;11.20;;;10.10;99.90;;;7.97;100.00;100529.84;10504303;28;20143;-81
2022/11/09 09:56:44;;;;;;;29.97;11.13;;;10.20;99.90;;;8.03;100.00;100531.06;10502609;28;20118;-80
2022/11/09 10:01:48;;;;;;;27.23;11.07;;;10.20;99.90;;;8.05;100.00;100513.25;10494713;28;20520;-79
2022/11/09 10:07:36;;;;;;;30.23;11.87;;;10.30;99.90;;;8.10;100.00;100515.47;10468511;28;20125;-79
2022/11/09 10:12:49;;;;;;;35.30;12.20;;;10.30;99.90;;;8.16;100.00;100510.44;10503591;28;20523;-82
2022/11/09 10:18:22;;;;;;;34.47;12.30;;;10.30;99.90;;;8.18;100.00;100508.47;10487117;28;20562;-82
2022/11/09 10:23:42;;;;;;;35.20;12.50;;;10.40;99.90;;;8.22;100.00;100509.88;10502618;28;20144;-82
2022/11/09 10:28:53;;;;;;;30.80;13.50;;;10.40;99.90;;;8.26;100.00;100505.94;10503662;28;20049;-82
2022/11/09 10:34:54;;;;;;;30.97;11.97;;;10.50;99.90;;;8.33;100.00;100495.59;10461672;28;20064;-83
2022/11/09 10:40:02;;;;;;;36.78;14.65;;;10.50;99.90;;;8.36;100.00;100495.34;10483984;28;20067;-81
2022/11/09 10:45:30;;;;;;;34.97;12.47;;;10.50;99.90;;;8.41;100.00;100489.59;10501739;28;20065;-81
2022/11/09 10:50:37;;;;;;;32.77;13.80;;;10.60;99.90;;;8.42;100.00;100488.63;10492426;28;20061;-80
2022/11/09 10:55:56;;;;;;;32.87;12.90;;;10.60;99.90;;;8.43;100.00;100474.41;10485659;28;20085;-79
2022/11/09 11:01:32;;;;;;;34.90;13.80;;;10.60;99.90;;;8.45;100.00;100469.78;10497690;28;20053;-80
2022/11/09 11:06:35;;;;;;;41.60;14.43;;;10.60;99.90;;;8.47;100.00;100466.03;10434809;28;20639;-80
2022/11/09 11:11:39;;;;;;;31.57;13.13;;;10.70;99.90;;;8.53;100.00;100469.88;10497782;28;20057;-82
2022/11/09 11:16:43;;;;;;;33.87;13.03;;;10.70;99.90;;;8.55;100.00;100473.22;10482258;28;20097;-81
2022/11/09 11:22:21;;;;;;;36.00;14.23;;;10.70;99.90;;;8.60;100.00;100465.66;10497438;28;20091;-81
2022/11/09 11:27:54;;;;;;;34.93;14.43;;;10.80;99.90;;;8.64;100.00;100455.63;10494057;28;20088;-81
2022/11/09 11:32:58;;;;;;;40.60;17.30;;;10.80;99.90;;;8.66;100.00;100453.63;10470465;28;20088;-83
2022/11/09 11:38:34;;;;;;;39.67;15.00;;;10.90;99.90;;;8.69;100.00;100455.97;10506304;28;20473;-84
2022/11/09 11:43:50;;;;;;;38.60;14.97;;;10.90;99.90;;;8.68;100.00;100456.97;10494466;28;20060;-83
2022/11/09 11:49:02;;;;;;;44.53;15.47;;;10.90;99.90;;;8.68;100.00;100452.50;10490879;28;21883;-82
2022/11/09 11:54:38;;;;;;;34.17;13.10;;;10.90;99.90;;;8.71;100.00;100449.56;10498877;28;20060;-82
2022/11/09 12:00:07;;;;;;;39.30;15.33;;;10.90;99.90;;;8.72;100.00;100445.09;10502355;28;20085;-82
2022/11/09 12:05:48;;;;;;;35.57;15.67;;;10.90;99.90;;;8.71;100.00;100433.66;10473435;28;20084;-83
2022/11/09 12:11:49;;;;;;;39.13;15.37;;;10.90;99.90;;;8.75;100.00;100432.38;10501379;28;20071;-82
2022/11/09 12:16:58;;;;;;;37.33;14.77;;;11.00;99.90;;;8.77;100.00;100433.06;10458809;28;20057;-82
2022/11/09 12:22:47;;;;;;;35.00;15.33;;;11.00;99.90;;;8.80;100.00;100424.81;10468737;28;20453;-82
2022/11/09 12:28:12;;;;;;;30.37;14.67;;;11.00;99.90;;;8.81;100.00;100429.09;10476029;28;20083;-82
2022/11/09 12:33:38;;;;;;;36.83;15.37;;;11.00;99.90;;;8.84;100.00;100431.47;10492827;28;20057;-83
2022/11/09 12:39:14;;;;;;;36.60;14.73;;;11.10;99.90;;;8.87;100.00;100427.69;10491429;28;20057;-82
2022/11/09 12:44:27;;;;;;;38.07;17.20;;;11.10;99.90;;;8.83;100.00;100421.88;10480485;28;20467;-83
2022/11/09 12:49:37;;;;;;;38.93;16.13;;;11.10;99.90;;;8.80;100.00;100421.31;10481193;28;20111;-81
2022/11/09 12:54:49;;;;;;;33.83;16.20;;;11.00;99.90;;;8.80;100.00;100424.81;10517489;28;20084;-81
2022/11/09 12:59:55;;;;;;;34.67;16.83;;;11.00;99.90;;;8.83;100.00;100421.88;10511662;28;20061;-79
2022/11/09 13:05:33;;;;;;;36.03;16.10;;;11.00;99.90;;;8.85;100.00;100417.22;10512510;28;20060;-81
2022/11/09 13:10:38;;;;;;;35.57;16.63;;;11.10;99.90;;;8.89;100.00;100409.81;10501307;28;20083;-82
2022/11/09 13:16:30;;;;;;;32.63;16.10;;;11.10;99.90;;;8.91;100.00;100404.38;10494502;28;20148;-79
2022/11/09 13:21:35;;;;;;;36.83;17.83;;;11.10;99.90;;;8.92;100.00;100401.56;10506975;28;20065;-82
2022/11/09 13:26:38;;;;;;;31.63;15.10;;;11.10;99.90;;;8.94;100.00;100399.59;10536181;28;20064;-82
2022/11/09 13:32:21;;;;;;;37.20;16.83;;;11.20;99.90;;;8.99;100.00;100401.78;10488636;28;20053;-83
2022/11/09 13:37:44;;;;;;;33.83;17.53;;;11.20;99.90;;;9.02;100.00;100401.47;10499577;28;20087;-83
2022/11/09 13:43:02;;;;;;;35.17;15.87;;;11.20;99.90;;;9.03;100.00;100408.44;10490006;28;20060;-82
2022/11/09 13:48:20;;;;;;;36.67;16.70;;;11.30;99.90;;;9.04;100.00;100402.16;10501244;28;20064;-82
2022/11/09 13:53:36;;;;;;;45.63;20.93;;;11.30;99.90;;;9.02;100.00;100396.19;10501449;28;20071;-82
2022/11/09 13:58:41;;;;;;;38.50;19.63;;;11.20;99.90;;;9.01;100.00;100399.81;10478997;28;20068;-81
2022/11/09 14:03:50;;;;;;;37.13;17.50;;;11.20;99.90;;;9.00;100.00;100395.50;10487332;28;20140;-80
2022/11/09 14:08:54;;;;;;;40.10;20.77;;;11.20;99.90;;;9.00;100.00;100395.50;10479656;28;20065;-80
2022/11/09 14:14:33;;;;;;;45.63;19.40;;;11.20;99.90;;;9.00;100.00;100400.81;10480936;28;20418;-80
2022/11/09 14:20:15;;;;;;;39.73;18.43;;;11.20;99.90;;;9.00;100.00;100400.81;10514350;28;20497;-80
2022/11/09 14:25:21;;;;;;;;;;;11.20;99.90;;;8.99;100.00;100399.13;10458041;28;20053;-81
2022/11/09 14:30:29;;;;;;;51.40;22.80;;;11.20;99.90;;;8.96;100.00;100404.75;10498827;28;19929;-80
2022/11/09 14:35:36;;;;;;;65.57;31.67;;;11.20;99.90;;;8.95;100.00;100401.25;10515528;28;20061;-82
2022/11/09 14:40:44;;;;;;;52.07;24.80;;;11.20;99.90;;;8.95;100.00;100397.78;10469757;28;20413;-83
2022/11/09 14:45:55;;;;;;;53.20;28.57;;;11.20;99.90;;;8.94;100.00;100398.78;10498810;28;20065;-83
2022/11/09 14:51:06;;;;;;;47.25;23.40;;;11.20;99.90;;;8.89;100.00;100398.41;10498800;28;20091;-83
2022/11/09 14:56:14;;;;;;;44.57;22.27;;;11.10;99.90;;;8.88;100.00;100397.56;10499589;28;20064;-83
2022/11/09 15:01:18;;;;;;;48.50;22.57;;;11.10;99.90;;;8.87;100.00;100397.69;10499286;28;20068;-82
2022/11/09 15:06:21;;;;;;;47.03;22.53;;;11.10;99.90;;;8.85;100.00;100393.38;10483375;28;20060;-80
2022/11/09 15:11:38;;;;;;;52.90;25.30;;;11.10;99.90;;;8.83;100.00;100399.84;10484456;28;20092;-82
2022/11/09 15:16:42;;;;;;;53.37;25.33;;;11.10;99.90;;;8.82;100.00;100404.31;10489134;28;20064;-82
2022/11/09 15:21:45;;;;;;;51.10;24.37;;;11.00;99.90;;;8.83;100.00;100399.84;10498412;27;20057;-81
2022/11/09 15:26:50;;;;;;;54.97;22.83;;;11.00;99.90;;;8.81;100.00;100397.31;10496547;28;20064;-84
2022/11/09 15:32:09;;;;;;;54.07;23.63;;;11.10;99.90;;;8.80;100.00;100398.31;10497606;28;20053;-83
2022/11/09 15:37:18;;;;;;;55.33;24.40;;;11.00;99.90;;;8.80;100.00;100402.78;10497931;28;20065;-83
2022/11/09 15:42:23;;;;;;;53.60;24.53;;;11.00;99.90;;;8.81;100.00;100399.97;10482457;28;20144;-80
2022/11/09 15:47:30;;;;;;;52.67;23.90;;;11.10;99.90;;;8.81;100.00;100405.25;10507768;28;20427;-82
2022/11/09 15:52:33;;;;;;;50.77;21.77;;;11.00;99.90;;;8.84;100.00;100394.38;10500209;28;20064;-82
2022/11/09 15:57:36;;;;;;;50.50;25.23;;;11.10;99.90;;;8.88;100.00;100402.88;10483109;28;20065;-82
2022/11/09 16:02:39;;;;;;;43.33;21.83;;;11.10;99.90;;;8.89;100.00;100401.88;10482268;28;20107;-82
2022/11/09 16:07:51;;;;;;;45.60;21.53;;;11.10;99.90;;;8.91;100.00;100407.84;10468120;28;20061;-83
2022/11/09 16:12:54;;;;;;;;;;;11.20;99.90;;;8.92;100.00;100412.16;10499995;28;20419;-85
2022/11/09 16:17:58;;;;;;;45.50;20.03;;;11.20;99.90;;;8.90;100.00;100406.19;10493492;28;19935;-84
2022/11/09 16:23:01;;;;;;;48.50;22.80;;;11.20;99.90;;;8.89;100.00;100407.19;10511593;28;20061;-82
2022/11/09 16:28:04;;;;;;;42.40;21.83;;;11.10;99.90;;;8.91;100.00;100401.72;10497772;28;20156;-85
2022/11/09 16:33:07;;;;;;;41.77;20.67;;;11.20;99.90;;;8.93;100.00;100407.69;10486767;28;20069;-83
2022/11/09 16:38:09;;;;;;;40.63;18.37;;;11.10;99.90;;;8.95;100.00;100401.25;10490406;28;20057;-83
2022/11/09 16:43:13;;;;;;;37.57;18.43;;;11.20;99.90;;;8.97;100.00;100403.75;10479805;28;20067;-82
2022/11/09 16:48:17;;;;;;;38.70;20.40;;;11.20;99.90;;;8.97;100.00;100398.47;10512464;28;20088;-85
2022/11/09 16:53:21;;;;;;;47.67;21.53;;;11.20;99.90;;;8.96;100.00;100407.41;10515843;28;20069;-83
2022/11/09 16:58:28;;;;;;;40.70;18.93;;;11.20;99.90;;;8.98;100.00;100405.41;10496922;28;20536;-84
2022/11/09 17:03:31;;;;;;;45.23;20.93;;;11.20;99.90;;;8.97;100.00;100403.75;10498289;28;20057;-83
2022/11/09 17:08:34;;;;;;;32.70;16.97;;;11.20;99.90;;;8.96;100.00;100402.94;10480759;28;20064;-84
2022/11/09 17:13:38;;;;;;;46.40;18.83;;;11.20;99.90;;;8.96;100.00;100407.41;10530124;28;20432;-81
2022/11/09 17:18:41;;;;;;;42.10;20.07;;;11.20;99.90;;;8.97;100.00;100409.06;10484297;28;20065;-81
2022/11/09 17:23:45;;;;;;;48.70;20.43;;;11.20;99.90;;;8.97;100.00;100409.88;10505752;28;20088;-82
2022/11/09 17:28:48;;;;;;;46.47;20.47;;;11.20;99.90;;;8.96;100.00;100402.94;10490305;28;20390;-82
2022/11/09 17:33:51;;;;;;;43.80;17.20;;;11.20;99.90;;;8.99;100.00;100415.03;10516163;28;20064;-83
2022/11/09 17:39:01;;;;;;;44.33;18.60;;;11.20;99.90;;;8.98;100.00;100413.38;10489940;28;20062;-83
2022/11/09 17:44:04;;;;;;;39.37;16.83;;;11.20;99.90;;;8.97;100.00;100415.19;10500753;28;20057;-84
2022/11/09 17:49:07;;;;;;;47.13;18.03;;;11.20;99.90;;;8.95;100.00;100417.16;10503636;28;20066;-82
2022/11/09 17:54:13;;;;;;;44.50;21.40;;;11.20;99.90;;;8.95;100.00;100425.13;10491659;28;20061;-81
2022/11/09 17:59:16;;;;;;;39.20;20.63;;;11.20;99.90;;;8.96;100.00;100412.69;10470113;28;20068;-81
2022/11/09 18:04:19;;;;;;;49.57;21.87;;;11.20;99.90;;;8.97;100.00;100414.34;10506280;28;20459;-82
2022/11/09 18:09:22;;;;;;;38.00;17.73;;;11.20;99.90;;;8.98;100.00;100411.53;10499462;28;20069;-81
2022/11/09 18:14:45;;;;;;;40.57;16.87;;;11.20;99.90;;;8.97;100.00;100409.88;10483788;28;20053;-82
2022/11/09 18:19:48;;;;;;;43.10;18.60;;;11.20;99.90;;;8.98;100.00;100410.72;10504329;28;20110;-82
2022/11/09 18:24:51;;;;;;;45.53;19.07;;;11.20;99.90;;;8.97;100.00;100409.88;10504376;28;20096;-81
2022/11/09 18:29:55;;;;;;;48.47;20.73;;;11.20;99.90;;;8.96;100.00;100405.56;10487406;28;20096;-82
2022/11/09 18:34:58;;;;;;;56.67;23.33;;;11.20;99.90;;;8.98;100.00;100405.41;10503977;28;20111;-82
2022/11/09 18:40:02;;;;;;;52.37;21.53;;;11.20;99.90;;;8.98;100.00;100406.25;10504108;28;20061;-82
2022/11/09 18:45:07;;;;;;;49.93;19.70;;;11.20;99.90;;;8.98;100.00;100393.00;10461547;28;20064;-83
2022/11/09 18:50:10;;;;;;;54.63;22.67;;;11.20;99.90;;;8.98;100.00;100400.13;10476463;28;20064;-82
2022/11/09 18:55:14;;;;;;;75.00;27.03;;;11.20;99.90;;;8.99;100.00;100394.66;10505128;28;20116;-82
2022/11/09 19:00:17;;;;;;;65.27;26.47;;;11.20;99.90;;;9.00;100.00;100408.78;10484479;28;20057;-82
2022/11/09 19:05:20;;;;;;;53.30;22.20;;;11.20;99.90;;;9.03;100.00;100397.84;10479156;28;20060;-81
2022/11/09 19:10:23;;;;;;;53.60;20.67;;;11.20;99.90;;;9.04;100.00;100407.47;10485853;28;20144;-82
2022/11/09 19:15:26;;;;;;;49.63;20.57;;;11.20;99.90;;;9.05;100.00;100401.16;10473585;28;20057;-83
2022/11/09 19:20:29;;;;;;;44.93;19.57;;;11.20;99.90;;;9.01;100.00;100397.19;10521626;28;20064;-82
2022/11/09 19:25:32;;;;;;;39.67;17.37;;;11.20;99.90;;;9.04;100.00;100400.34;10511478;28;20079;-82
2022/11/09 19:30:35;;;;;;;52.20;20.03;;;11.20;99.90;;;9.04;100.00;100408.28;10493744;28;20057;-82
2022/11/09 19:35:38;;;;;;;46.80;18.70;;;11.20;99.90;;;9.07;100.00;100409.81;10487745;28;20061;-82
2022/11/09 19:40:41;;;;;;;31.37;14.70;;;11.30;99.90;;;9.07;100.00;100417.78;10484950;28;20065;-82
2022/11/09 19:45:44;;;;;;;45.67;17.70;;;11.30;99.90;;;9.08;100.00;100406.19;10496083;28;20053;-82
2022/11/09 19:50:51;;;;;;;32.00;14.80;;;11.30;99.90;;;9.08;100.00;100411.47;10493779;28;20052;-82
2022/11/09 19:56:04;;;;;;;44.50;17.30;;;11.30;99.90;;;9.06;100.00;100403.69;10472863;28;20584;-82
2022/11/09 20:01:11;;;;;;;45.87;17.93;;;11.30;99.90;;;9.07;100.00;100423.06;10510901;28;20420;-82
2022/11/09 20:06:16;;;;;;;48.20;17.00;;;11.30;99.90;;;9.08;100.00;100419.44;10478065;28;20084;-82
2022/11/09 20:16:47;;;;;;;51.20;19.30;;;11.30;99.90;;;9.04;100.00;100405.63;10511307;28;20143;-82
2022/11/09 20:21:50;;;;;;;58.13;21.53;;;11.30;99.90;;;9.04;100.00;100404.81;10468012;28;20058;-82
2022/11/09 20:26:53;;;;;;;55.63;22.37;;;11.30;99.90;;;9.03;100.00;100397.84;10528661;28;20053;-82
2022/11/09 20:31:56;;;;;;;54.73;20.20;;;11.30;99.90;;;9.02;100.00;100401.47;10511298;28;20057;-82
2022/11/09 20:36:59;;;;;;;55.97;21.97;;;11.30;99.90;;;8.99;100.00;100394.66;10480502;28;20107;-83
2022/11/09 20:42:02;;;;;;;54.30;21.23;;;11.20;99.90;;;8.95;100.00;100395.13;10481418;28;20061;-83
2022/11/09 20:47:05;;;;;;;47.50;19.83;;;11.20;99.90;;;8.97;100.00;100401.94;10494940;28;20080;-83
2022/11/09 20:52:08;;;;;;;53.57;19.43;;;11.20;99.90;;;8.96;100.00;100392.31;10513946;28;20412;-83
2022/11/09 20:57:14;;;;;;;63.00;21.90;;;11.20;99.90;;;8.94;100.00;100407.56;10524160;28;20103;-83
2022/11/09 21:02:17;;;;;;;52.00;20.60;;;11.20;99.90;;;8.97;100.00;100409.06;10487053;28;20082;-82